Time;durP1;ratioP1;P1;durP2;ratioP2;P2;SDS_P1;SDS_P2;PMS_P1;PMS_P2;Temp;Humidity;BMP_temperature;BMP_pressure;BME280_temperature;BME280_humidity;BME280_pressure;Samples;Min_cycle;Max_cycle;Signal;HPM_P1;HPM_P2
2022/04/03 00:00:28;;;;;;;73.90;45.00;;;;;;;;;;4973746;28;20812;-57
2022/04/03 00:02:54;;;;;;;78.03;46.08;;;;;;;;;;4973417;28;20304;-60
2022/04/03 00:05:20;;;;;;;80.50;46.37;;;;;;;;;;4974268;28;20195;-59
2022/04/03 00:07:46;;;;;;;77.80;44.77;;;;;;;;;;4979398;28;20456;-56
2022/04/03 00:10:14;;;;;;;78.97;46.97;;;;;;;;;;4980663;28;20426;-57
2022/04/03 00:12:41;;;;;;;75.25;43.40;;;;;;;;;;4985139;28;20645;-59
2022/04/03 00:15:07;;;;;;;84.07;47.08;;;;;;;;;;4973150;28;20187;-59
2022/04/03 00:17:33;;;;;;;80.40;46.47;;;;;;;;;;4973821;28;20186;-59
2022/04/03 00:19:59;;;;;;;82.30;47.40;;;;;;;;;;4972960;28;20179;-56
2022/04/03 00:22:25;;;;;;;84.50;47.50;;;;;;;;;;4973326;28;20282;-60
2022/04/03 00:24:52;;;;;;;80.82;46.35;;;;;;;;;;4981499;28;20232;-57
2022/04/03 00:27:18;;;;;;;83.75;47.25;;;;;;;;;;4975279;28;20217;-60
2022/04/03 00:29:44;;;;;;;79.32;45.40;;;;;;;;;;4972873;28;20203;-57
2022/04/03 00:32:10;;;;;;;71.63;43.38;;;;;;;;;;4972921;28;20675;-57
2022/04/03 00:34:36;;;;;;;78.57;45.77;;;;;;;;;;4973012;28;20257;-58
2022/04/03 00:37:02;;;;;;;80.15;43.92;;;;;;;;;;4973450;28;20426;-60
2022/04/03 00:39:28;;;;;;;83.00;48.13;;;;;;;;;;4978132;28;20187;-61
2022/04/03 00:41:54;;;;;;;79.80;45.47;;;;;;;;;;4982676;28;20237;-59
2022/04/03 00:44:20;;;;;;;87.13;47.47;;;;;;;;;;4972744;28;20454;-57
2022/04/03 00:46:47;;;;;;;80.30;46.70;;;;;;;;;;4972799;28;20179;-59
2022/04/03 00:49:13;;;;;;;82.65;48.13;;;;;;;;;;4972973;28;20427;-59
2022/04/03 00:51:39;;;;;;;71.70;49.38;;;;;;;;;;4972865;28;20203;-60
2022/04/03 00:54:06;;;;;;;65.75;44.55;;;;;;;;;;4971946;28;20179;-59
2022/04/03 00:56:32;;;;;;;67.70;44.88;;;;;;;;;;4978609;28;20233;-60
2022/04/03 00:58:59;;;;;;;78.43;47.75;;;;;;;;;;4980298;28;20234;-59
2022/04/03 01:01:25;;;;;;;79.43;45.90;;;;;;;;;;4979007;28;20222;-60
2022/04/03 01:03:51;;;;;;;80.55;46.63;;;;;;;;;;4972329;28;20203;-58
2022/04/03 01:06:17;;;;;;;83.03;47.08;;;;;;;;;;4973211;28;20827;-59
2022/04/03 01:08:43;;;;;;;85.22;47.50;;;;;;;;;;4972035;28;20191;-60
2022/04/03 01:11:13;;;;;;;78.60;45.80;;;;;;;;;;4972774;28;20195;-60
2022/04/03 01:13:46;;;;;;;78.47;45.28;;;;;;;;;;4977923;28;20662;-60
2022/04/03 01:16:12;;;;;;;76.50;48.95;;;;;;;;;;4954329;28;20267;-59
2022/04/03 01:18:38;;;;;;;79.20;46.13;;;;;;;;;;4972875;28;20283;-59
2022/04/03 01:21:04;;;;;;;77.70;45.67;;;;;;;;;;4991209;28;20472;-59
2022/04/03 01:23:30;;;;;;;72.57;43.10;;;;;;;;;;4976404;28;20501;-60
2022/04/03 01:25:56;;;;;;;73.95;42.88;;;;;;;;;;4972666;28;20426;-59
2022/04/03 01:28:23;;;;;;;80.90;48.83;;;;;;;;;;4972814;28;20179;-58
2022/04/03 01:30:49;;;;;;;78.68;47.97;;;;;;;;;;4983113;28;20214;-59
2022/04/03 01:33:15;;;;;;;75.27;45.23;;;;;;;;;;4972019;28;20183;-58
2022/04/03 01:35:41;;;;;;;70.70;42.70;;;;;;;;;;4972819;28;20410;-56
2022/04/03 01:38:07;;;;;;;68.20;42.75;;;;;;;;;;4979388;28;20475;-59
2022/04/03 01:40:35;;;;;;;89.10;55.53;;;;;;;;;;5003707;22;20627;-60
2022/04/03 01:43:06;;;;;;;79.50;45.00;;;;;;;;;;5011895;28;20304;-62
2022/04/03 01:45:32;;;;;;;80.10;46.05;;;;;;;;;;5010812;28;20363;-62
2022/04/03 01:47:59;;;;;;;77.65;46.13;;;;;;;;;;5011087;28;20224;-62
2022/04/03 01:50:25;;;;;;;77.18;47.05;;;;;;;;;;5010924;28;20169;-62
2022/04/03 01:52:51;;;;;;;76.70;45.25;;;;;;;;;;5011300;28;20550;-60
2022/04/03 01:55:18;;;;;;;79.20;47.00;;;;;;;;;;5010068;28;20189;-60
2022/04/03 01:57:44;;;;;;;78.38;44.70;;;;;;;;;;5010895;28;20832;-60
2022/04/03 02:00:10;;;;;;;76.65;44.25;;;;;;;;;;5010643;28;20186;-62
2022/04/03 02:02:37;;;;;;;73.47;45.13;;;;;;;;;;5010726;28;20617;-62
2022/04/03 02:05:03;;;;;;;82.97;47.83;;;;;;;;;;5013415;28;20260;-63
2022/04/03 02:07:30;;;;;;;81.20;44.50;;;;;;;;;;5014988;28;20184;-60
2022/04/03 02:09:56;;;;;;;82.82;47.40;;;;;;;;;;5013609;28;20181;-59
2022/04/03 02:12:22;;;;;;;72.72;46.30;;;;;;;;;;5013081;28;20193;-60
2022/04/03 02:14:49;;;;;;;81.50;45.37;;;;;;;;;;5015328;28;20181;-60
2022/04/03 02:17:15;;;;;;;79.50;45.67;;;;;;;;;;5014475;28;20425;-60
2022/04/03 02:19:41;;;;;;;83.68;45.80;;;;;;;;;;5014604;28;20209;-60
2022/04/03 02:22:08;;;;;;;79.60;47.40;;;;;;;;;;5013729;28;20205;-60
2022/04/03 02:24:34;;;;;;;83.15;47.63;;;;;;;;;;5007126;28;20202;-60
2022/04/03 02:26:59;;;;;;;79.70;45.97;;;;;;;;;;5012792;28;20176;-60
2022/04/03 02:29:25;;;;;;;79.97;45.27;;;;;;;;;;5015101;28;20419;-61
2022/04/03 02:31:51;;;;;;;82.73;48.20;;;;;;;;;;5013689;28;20455;-61
2022/04/03 02:34:18;;;;;;;85.90;47.23;;;;;;;;;;5014370;28;20432;-61
2022/04/03 02:36:44;;;;;;;78.05;46.70;;;;;;;;;;5014128;28;20848;-61
2022/04/03 02:39:12;;;;;;;70.27;44.37;;;;;;;;;;5014310;28;20269;-60
2022/04/03 02:41:38;;;;;;;77.95;46.08;;;;;;;;;;5013639;28;20463;-63
2022/04/03 02:44:04;;;;;;;70.70;42.10;;;;;;;;;;5014420;28;20217;-61
2022/04/03 02:46:31;;;;;;;77.72;50.20;;;;;;;;;;5014085;28;20266;-59
2022/04/03 02:48:57;;;;;;;73.05;44.38;;;;;;;;;;5014052;28;20174;-60
2022/04/03 02:51:23;;;;;;;75.18;45.80;;;;;;;;;;5014040;28;20754;-60
2022/04/03 02:53:49;;;;;;;70.57;43.75;;;;;;;;;;5014114;28;20675;-61
2022/04/03 02:56:15;;;;;;;68.33;43.63;;;;;;;;;;5013922;28;20260;-61
2022/04/03 02:58:41;;;;;;;74.50;45.43;;;;;;;;;;5014237;28;20424;-60
2022/04/03 03:01:08;;;;;;;68.20;42.53;;;;;;;;;;5013696;28;20444;-61
2022/04/03 03:03:34;;;;;;;71.57;44.33;;;;;;;;;;5013512;28;20253;-61
2022/04/03 03:06:01;;;;;;;69.03;43.22;;;;;;;;;;5013905;28;20177;-61
2022/04/03 03:08:27;;;;;;;71.35;46.25;;;;;;;;;;5013687;28;20177;-61
2022/04/03 03:10:53;;;;;;;70.50;47.47;;;;;;;;;;5011294;28;20278;-61
2022/04/03 03:13:18;;;;;;;72.03;42.17;;;;;;;;;;5011965;28;20421;-61
2022/04/03 03:15:44;;;;;;;68.57;44.87;;;;;;;;;;5012899;28;20420;-62
2022/04/03 03:18:10;;;;;;;72.88;46.25;;;;;;;;;;5013959;28;20420;-60
2022/04/03 03:20:36;;;;;;;75.53;49.00;;;;;;;;;;5011885;28;20185;-61
2022/04/03 03:23:02;;;;;;;76.18;45.30;;;;;;;;;;5005242;28;20464;-61
2022/04/03 03:25:31;;;;;;;73.60;43.50;;;;;;;;;;5013056;28;20174;-61
2022/04/03 03:27:57;;;;;;;73.45;45.60;;;;;;;;;;5013989;28;20404;-60
2022/04/03 03:30:23;;;;;;;73.78;47.83;;;;;;;;;;5013400;28;20189;-60
2022/04/03 03:32:49;;;;;;;71.40;44.25;;;;;;;;;;5012999;28;20557;-60
2022/04/03 03:35:15;;;;;;;70.72;44.53;;;;;;;;;;5011954;28;20221;-61
2022/04/03 03:37:41;;;;;;;68.72;43.35;;;;;;;;;;5013065;28;20684;-61
2022/04/03 03:40:11;;;;;;;72.70;45.97;;;;;;;;;;5013075;28;20277;-60
2022/04/03 03:42:37;;;;;;;71.93;45.80;;;;;;;;;;5012827;28;20551;-61
2022/04/03 03:45:03;;;;;;;77.95;46.40;;;;;;;;;;5013473;28;20170;-61
2022/04/03 03:47:29;;;;;;;74.22;45.55;;;;;;;;;;5012748;28;20208;-61
2022/04/03 03:49:56;;;;;;;74.33;48.53;;;;;;;;;;5012513;28;20209;-61
2022/04/03 03:52:22;;;;;;;70.43;43.47;;;;;;;;;;5007508;28;20949;-61
2022/04/03 03:54:48;;;;;;;68.75;43.83;;;;;;;;;;5005149;28;20256;-61
2022/04/03 03:57:14;;;;;;;73.20;43.60;;;;;;;;;;5013283;28;20189;-61
2022/04/03 03:59:40;;;;;;;76.60;47.00;;;;;;;;;;5013142;28;20182;-63
2022/04/03 04:02:06;;;;;;;79.75;46.85;;;;;;;;;;5012224;28;20197;-61
2022/04/03 04:04:32;;;;;;;81.22;47.03;;;;;;;;;;5012838;28;20288;-60
2022/04/03 04:06:58;;;;;;;83.20;46.72;;;;;;;;;;5011586;28;20178;-61
2022/04/03 04:09:24;;;;;;;84.87;48.03;;;;;;;;;;4999018;28;20187;-61
2022/04/03 04:11:50;;;;;;;58.90;40.67;;;;;;;;;;5009061;28;20424;-61
2022/04/03 04:14:16;;;;;;;82.35;46.45;;;;;;;;;;5012627;28;20272;-61
2022/04/03 04:16:42;;;;;;;58.90;42.20;;;;;;;;;;5012551;28;20264;-61
2022/04/03 04:19:09;;;;;;;63.20;43.88;;;;;;;;;;5012644;28;20448;-61
2022/04/03 04:21:35;;;;;;;57.65;40.50;;;;;;;;;;5011783;28;20281;-61
2022/04/03 04:24:01;;;;;;;59.80;41.70;;;;;;;;;;5012534;28;20209;-61
2022/04/03 04:26:27;;;;;;;65.67;53.47;;;;;;;;;;5009218;28;20180;-60
2022/04/03 04:28:53;;;;;;;61.33;41.65;;;;;;;;;;5010816;28;20508;-61
2022/04/03 04:31:19;;;;;;;56.28;39.70;;;;;;;;;;5006795;28;20190;-61
2022/04/03 04:33:45;;;;;;;63.78;44.40;;;;;;;;;;5012162;28;20269;-61
2022/04/03 04:36:11;;;;;;;61.70;43.07;;;;;;;;;;5012289;28;20288;-61
2022/04/03 04:38:37;;;;;;;57.97;41.87;;;;;;;;;;5012522;28;20424;-61
2022/04/03 04:41:04;;;;;;;61.88;41.78;;;;;;;;;;5011577;28;20472;-61
2022/04/03 04:43:30;;;;;;;67.82;46.38;;;;;;;;;;5011933;28;20204;-61
2022/04/03 04:45:56;;;;;;;63.90;44.30;;;;;;;;;;5012102;28;20543;-59
2022/04/03 04:48:22;;;;;;;64.82;46.08;;;;;;;;;;5011822;28;20272;-61
2022/04/03 04:50:49;;;;;;;60.37;41.20;;;;;;;;;;5010001;28;20720;-61
2022/04/03 04:53:15;;;;;;;58.25;40.30;;;;;;;;;;5006316;28;20428;-61
2022/04/03 04:55:41;;;;;;;61.20;41.87;;;;;;;;;;5011366;28;20181;-61
2022/04/03 04:58:07;;;;;;;60.33;41.87;;;;;;;;;;5012000;28;20478;-61
2022/04/03 05:00:33;;;;;;;62.50;45.07;;;;;;;;;;5011345;28;20452;-60
2022/04/03 05:02:59;;;;;;;63.10;43.95;;;;;;;;;;5010935;28;20467;-61
2022/04/03 05:05:27;;;;;;;63.72;48.15;;;;;;;;;;5007361;28;20205;-61
2022/04/03 05:07:56;;;;;;;59.08;43.00;;;;;;;;;;5004833;28;20664;-58
2022/04/03 05:10:23;;;;;;;59.30;42.90;;;;;;;;;;5010085;28;20196;-60
2022/04/03 05:12:50;;;;;;;55.72;42.50;;;;;;;;;;5009796;28;20210;-61
2022/04/03 05:15:18;;;;;;;55.20;42.35;;;;;;;;;;5009656;28;20178;-58
2022/04/03 05:17:45;;;;;;;55.15;42.70;;;;;;;;;;5007603;28;20170;-60
2022/04/03 05:20:12;;;;;;;82.35;50.17;;;;;;;;;;5009154;28;20309;-61
2022/04/03 05:22:38;;;;;;;78.68;45.17;;;;;;;;;;5009171;28;20213;-61
2022/04/03 05:25:05;;;;;;;77.72;45.45;;;;;;;;;;5009214;28;20557;-60
2022/04/03 05:27:31;;;;;;;85.10;51.65;;;;;;;;;;5006318;28;20260;-61
2022/04/03 05:29:57;;;;;;;80.10;46.78;;;;;;;;;;5007392;28;20224;-61
2022/04/03 05:32:28;;;;;;;77.78;43.95;;;;;;;;;;5010183;28;20252;-62
2022/04/03 05:34:54;;;;;;;81.15;45.03;;;;;;;;;;5009229;28;20546;-59
2022/04/03 05:37:20;;;;;;;75.82;48.45;;;;;;;;;;5002454;28;20243;-60
2022/04/03 05:39:46;;;;;;;76.07;50.10;;;;;;;;;;4999648;28;20677;-60
2022/04/03 05:42:12;;;;;;;79.43;46.20;;;;;;;;;;5004976;28;21011;-62
2022/04/03 05:44:39;;;;;;;83.43;49.05;;;;;;;;;;5004538;28;20201;-60
2022/04/03 05:47:05;;;;;;;73.65;45.47;;;;;;;;;;5010807;28;20228;-60
2022/04/03 05:49:31;;;;;;;72.07;50.88;;;;;;;;;;5010980;28;20173;-60
2022/04/03 05:51:57;;;;;;;66.17;44.90;;;;;;;;;;5006964;28;20247;-62
2022/04/03 05:54:23;;;;;;;68.13;44.30;;;;;;;;;;5010529;28;20932;-58
2022/04/03 05:56:49;;;;;;;72.28;44.65;;;;;;;;;;5007496;28;20436;-62
2022/04/03 05:59:15;;;;;;;69.60;43.42;;;;;;;;;;5003083;28;20213;-62
2022/04/03 06:01:41;;;;;;;74.55;44.30;;;;;;;;;;5007150;28;20284;-62
2022/04/03 06:04:07;;;;;;;80.97;48.67;;;;;;;;;;5010130;28;20280;-60
2022/04/03 06:06:34;;;;;;;80.90;49.27;;;;;;;;;;5010442;28;20595;-61
2022/04/03 06:09:00;;;;;;;74.85;45.03;;;;;;;;;;5010086;28;20499;-60
2022/04/03 06:11:25;;;;;;;80.93;49.60;;;;;;;;;;5006955;28;20273;-60
2022/04/03 06:13:51;;;;;;;77.07;46.63;;;;;;;;;;5010675;28;20428;-61
2022/04/03 06:16:17;;;;;;;73.83;44.63;;;;;;;;;;5008974;28;20443;-61
2022/04/03 06:18:43;;;;;;;75.72;46.13;;;;;;;;;;5009467;28;20531;-61
2022/04/03 06:21:09;;;;;;;76.87;46.70;;;;;;;;;;4997858;28;20289;-57
2022/04/03 06:23:35;;;;;;;74.38;44.70;;;;;;;;;;5005285;28;22348;-60
2022/04/03 06:26:02;;;;;;;74.80;44.77;;;;;;;;;;5005734;28;20506;-61
2022/04/03 06:28:28;;;;;;;76.88;46.17;;;;;;;;;;5008234;28;20432;-61
2022/04/03 06:30:55;;;;;;;73.57;46.67;;;;;;;;;;5009040;28;20285;-61
2022/04/03 06:33:21;;;;;;;74.00;45.92;;;;;;;;;;5005544;28;20460;-61
2022/04/03 06:35:47;;;;;;;68.07;42.17;;;;;;;;;;5005911;28;20189;-62
2022/04/03 06:38:14;;;;;;;72.22;47.22;;;;;;;;;;5009227;28;20463;-61
2022/04/03 06:40:41;;;;;;;73.32;44.72;;;;;;;;;;5007271;28;20182;-62
2022/04/03 06:43:07;;;;;;;71.20;44.08;;;;;;;;;;5006572;28;20208;-62
2022/04/03 06:45:33;;;;;;;71.32;42.50;;;;;;;;;;5007357;28;20177;-61
2022/04/03 06:48:00;;;;;;;81.23;51.27;;;;;;;;;;5003547;28;20237;-61
2022/04/03 06:50:27;;;;;;;76.18;45.38;;;;;;;;;;5003640;28;21203;-61
2022/04/03 06:52:52;;;;;;;77.68;46.17;;;;;;;;;;5007175;28;20202;-61
2022/04/03 06:55:20;;;;;;;77.73;44.30;;;;;;;;;;5007676;28;20182;-61
2022/04/03 06:57:46;;;;;;;80.28;51.00;;;;;;;;;;5009988;28;20427;-61
2022/04/03 07:00:13;;;;;;;83.40;49.20;;;;;;;;;;5011213;28;20183;-61
2022/04/03 07:02:39;;;;;;;80.50;47.28;;;;;;;;;;5011274;28;20475;-61
2022/04/03 07:05:05;;;;;;;87.67;52.70;;;;;;;;;;5003447;28;20197;-62
2022/04/03 07:07:32;;;;;;;91.10;54.00;;;;;;;;;;5003223;28;20436;-61
2022/04/03 07:09:58;;;;;;;85.47;47.90;;;;;;;;;;5005553;28;20213;-62
2022/04/03 07:12:24;;;;;;;87.78;54.17;;;;;;;;;;5004082;28;20240;-61
2022/04/03 07:14:50;;;;;;;81.03;49.20;;;;;;;;;;5004579;28;20212;-61
2022/04/03 07:17:16;;;;;;;74.33;42.90;;;;;;;;;;5010898;28;20507;-61
2022/04/03 07:19:43;;;;;;;76.10;44.42;;;;;;;;;;5007844;28;20511;-61
2022/04/03 07:22:09;;;;;;;78.78;47.63;;;;;;;;;;5006564;28;20228;-61
2022/04/03 07:24:35;;;;;;;73.28;45.00;;;;;;;;;;5006882;28;20706;-61
2022/04/03 07:27:01;;;;;;;76.87;46.57;;;;;;;;;;4990270;28;20195;-61
2022/04/03 07:29:27;;;;;;;81.45;53.13;;;;;;;;;;5009428;28;20424;-61
2022/04/03 07:31:53;;;;;;;76.70;45.50;;;;;;;;;;5011009;28;20249;-62
2022/04/03 07:34:19;;;;;;;79.45;49.75;;;;;;;;;;5008904;28;22108;-61
2022/04/03 07:36:45;;;;;;;84.25;49.50;;;;;;;;;;5009179;28;20220;-61
2022/04/03 07:39:12;;;;;;;81.90;48.07;;;;;;;;;;5012069;28;20181;-62
2022/04/03 07:41:38;;;;;;;76.95;46.45;;;;;;;;;;5011934;28;20453;-61
2022/04/03 07:44:05;;;;;;;69.72;45.58;;;;;;;;;;5012347;28;20247;-61
2022/04/03 07:46:31;;;;;;;87.72;52.03;;;;;;;;;;5066979;22;20225;-61
2022/04/03 07:48:57;;;;;;;87.97;50.37;;;;;;;;;;5007654;28;20231;-60
2022/04/03 07:51:23;;;;;;;94.20;51.40;;;;;;;;;;5005700;28;20459;-61
2022/04/03 07:53:49;;;;;;;124.05;61.47;;;;;;;;;;4992544;28;20187;-61
2022/04/03 07:56:16;;;;;;;136.35;57.72;;;;;;;;;;5005209;28;20580;-60
2022/04/03 07:58:42;;;;;;;115.18;54.28;;;;;;;;;;5017200;28;20191;-61
2022/04/03 08:01:08;;;;;;;108.00;54.90;;;;;;;;;;5014008;28;20185;-61
2022/04/03 08:03:34;;;;;;;111.17;58.50;;;;;;;;;;5011759;28;20462;-61
2022/04/03 08:06:00;;;;;;;104.38;53.45;;;;;;;;;;5016400;28;20442;-58
2022/04/03 08:08:26;;;;;;;104.05;53.45;;;;;;;;;;4998777;28;20197;-58
2022/04/03 08:10:52;;;;;;;106.70;54.53;;;;;;;;;;5024227;28;20545;-60
2022/04/03 08:13:20;;;;;;;102.20;53.05;;;;;;;;;;5012824;28;20947;-60
2022/04/03 08:15:46;;;;;;;101.15;52.33;;;;;;;;;;5013023;28;20195;-60
2022/04/03 08:18:12;;;;;;;99.30;52.37;;;;;;;;;;5012841;28;20202;-60
2022/04/03 08:20:38;;;;;;;109.63;61.63;;;;;;;;;;5010706;28;20811;-58
2022/04/03 08:23:05;;;;;;;98.75;50.45;;;;;;;;;;4993347;28;20449;-60
2022/04/03 08:25:31;;;;;;;101.30;53.20;;;;;;;;;;4993289;28;20192;-59
2022/04/03 08:27:59;;;;;;;103.68;53.03;;;;;;;;;;5005219;28;20183;-59
2022/04/03 08:30:26;;;;;;;105.47;54.28;;;;;;;;;;5011434;28;20194;-58
2022/04/03 08:32:53;;;;;;;104.50;52.80;;;;;;;;;;5009260;28;20179;-57
2022/04/03 08:35:20;;;;;;;100.95;52.83;;;;;;;;;;5011596;28;20193;-58
2022/04/03 08:37:46;;;;;;;103.13;53.28;;;;;;;;;;5011462;28;20198;-58
2022/04/03 08:40:13;;;;;;;102.90;55.08;;;;;;;;;;5011244;28;20186;-56
2022/04/03 08:42:39;;;;;;;107.30;53.40;;;;;;;;;;5011896;28;20216;-58
2022/04/03 08:45:11;;;;;;;109.13;53.63;;;;;;;;;;5010906;28;20297;-59
2022/04/03 08:47:40;;;;;;;115.10;54.72;;;;;;;;;;5011392;28;20189;-60
2022/04/03 08:50:06;;;;;;;118.30;56.30;;;;;;;;;;5010994;28;20570;-57
2022/04/03 08:52:32;;;;;;;116.15;57.17;;;;;;;;;;5011639;28;20209;-58
2022/04/03 08:54:59;;;;;;;117.18;59.97;;;;;;;;;;5012432;28;20196;-58
2022/04/03 08:57:25;;;;;;;124.72;64.38;;;;;;;;;;5012466;28;20192;-60
2022/04/03 08:59:54;;;;;;;127.03;70.45;;;;;;;;;;5012368;28;20263;-59
2022/04/03 09:02:20;;;;;;;124.88;67.78;;;;;;;;;;5012228;28;20182;-60
2022/04/03 09:04:46;;;;;;;128.67;71.40;;;;;;;;;;5012081;28;20209;-60
2022/04/03 09:07:17;;;;;;;125.60;73.18;;;;;;;;;;5012396;28;20485;-61
2022/04/03 09:09:43;;;;;;;135.43;82.30;;;;;;;;;;5012381;28;20178;-61
2022/04/03 09:12:13;;;;;;;156.40;108.23;;;;;;;;;;5012680;28;20495;-61
2022/04/03 09:14:45;;;;;;;164.23;132.65;;;;;;;;;;5011414;28;20463;-61
2022/04/03 09:17:11;;;;;;;158.82;141.82;;;;;;;;;;5010295;28;20593;-61
2022/04/03 09:19:37;;;;;;;156.50;140.33;;;;;;;;;;5011467;28;20185;-61
2022/04/03 09:22:03;;;;;;;144.00;128.73;;;;;;;;;;5010772;28;20792;-60
2022/04/03 09:24:29;;;;;;;131.38;117.57;;;;;;;;;;5010447;28;20487;-60
2022/04/03 09:26:59;;;;;;;118.30;96.90;;;;;;;;;;5010854;28;20202;-59
2022/04/03 09:29:25;;;;;;;113.20;82.25;;;;;;;;;;5016231;28;20545;-60
2022/04/03 09:31:58;;;;;;;112.05;76.22;;;;;;;;;;5010263;28;20228;-59
2022/04/03 09:34:25;;;;;;;107.97;72.45;;;;;;;;;;5010644;28;20169;-59
2022/04/03 09:36:58;;;;;;;115.55;68.40;;;;;;;;;;4992859;28;20330;-57
2022/04/03 09:39:25;;;;;;;111.13;64.22;;;;;;;;;;5011711;28;20177;-60
2022/04/03 09:42:11;;;;;;;112.90;62.80;;;;;;;;;;5010750;28;20185;-58
2022/04/03 09:44:38;;;;;;;111.22;64.20;;;;;;;;;;5007115;28;20221;-60
2022/04/03 09:47:14;;;;;;;110.53;61.60;;;;;;;;;;5010372;28;20201;-59
2022/04/03 09:49:40;;;;;;;112.80;61.20;;;;;;;;;;5007742;28;20203;-60
2022/04/03 09:52:07;;;;;;;110.25;60.92;;;;;;;;;;5010241;28;20191;-59
2022/04/03 09:54:33;;;;;;;112.25;60.97;;;;;;;;;;5009901;28;20534;-60
2022/04/03 09:57:34;;;;;;;106.20;57.37;;;;;;;;;;5010436;28;20172;-59
2022/04/03 10:00:00;;;;;;;109.43;60.10;;;;;;;;;;4911788;29;20948;-60
2022/04/03 10:02:26;;;;;;;102.13;56.60;;;;;;;;;;4990022;28;20185;-59
2022/04/03 10:04:52;;;;;;;103.60;56.73;;;;;;;;;;4993021;28;20480;-60
2022/04/03 10:07:20;;;;;;;99.85;54.08;;;;;;;;;;5013069;28;20760;-60
2022/04/03 10:09:49;;;;;;;106.82;60.53;;;;;;;;;;5010021;28;20172;-60
2022/04/03 10:12:16;;;;;;;104.55;58.45;;;;;;;;;;5007703;28;20176;-60
2022/04/03 10:14:44;;;;;;;103.20;58.13;;;;;;;;;;5009942;28;20227;-60
2022/04/03 10:17:10;;;;;;;94.50;52.88;;;;;;;;;;5009655;28;20651;-60
2022/04/03 10:19:36;;;;;;;101.68;55.17;;;;;;;;;;5010268;28;20231;-60
2022/04/03 10:22:04;;;;;;;104.00;54.10;;;;;;;;;;5010044;28;20184;-60
2022/04/03 10:24:31;;;;;;;101.13;54.42;;;;;;;;;;5009791;28;20894;-59
2022/04/03 10:27:16;;;;;;;107.93;60.70;;;;;;;;;;5014636;28;20579;-60
2022/04/03 10:29:43;;;;;;;102.65;53.85;;;;;;;;;;5014669;28;20255;-60
2022/04/03 10:32:10;;;;;;;98.47;52.67;;;;;;;;;;5014184;28;20186;-60
2022/04/03 10:34:46;;;;;;;101.72;52.80;;;;;;;;;;5015035;28;20192;-60
2022/04/03 10:37:32;;;;;;;104.07;56.25;;;;;;;;;;5013895;28;20527;-60
2022/04/03 10:40:10;;;;;;;104.97;54.17;;;;;;;;;;5014399;28;20188;-60
2022/04/03 10:42:48;;;;;;;108.55;55.58;;;;;;;;;;5014998;28;20180;-60
2022/04/03 10:45:14;;;;;;;107.72;56.45;;;;;;;;;;5014548;28;20272;-60
2022/04/03 10:47:41;;;;;;;108.60;56.70;;;;;;;;;;5017375;28;20295;-60
2022/04/03 10:50:08;;;;;;;112.13;58.17;;;;;;;;;;5013666;28;20418;-59
2022/04/03 10:52:40;;;;;;;108.72;54.47;;;;;;;;;;5014783;28;20198;-60
2022/04/03 10:55:15;;;;;;;109.78;54.60;;;;;;;;;;5014548;28;20206;-60
2022/04/03 10:57:48;;;;;;;109.70;54.83;;;;;;;;;;5014679;28;20191;-60
2022/04/03 11:00:14;;;;;;;111.07;58.88;;;;;;;;;;5014294;28;20266;-60
2022/04/03 11:02:41;;;;;;;108.00;55.15;;;;;;;;;;5014127;28;20200;-60
2022/04/03 11:05:25;;;;;;;103.03;53.78;;;;;;;;;;5018150;28;20679;-59
2022/04/03 11:07:51;;;;;;;104.32;55.13;;;;;;;;;;5014631;28;20269;-60
2022/04/03 11:10:37;;;;;;;113.20;64.10;;;;;;;;;;5014317;28;20216;-60
2022/04/03 11:13:08;;;;;;;111.75;57.55;;;;;;;;;;5013876;28;20413;-60
2022/04/03 11:15:44;;;;;;;115.32;58.75;;;;;;;;;;5014270;28;20197;-60
2022/04/03 11:18:28;;;;;;;117.10;60.33;;;;;;;;;;5014502;28;20187;-59
2022/04/03 11:21:06;;;;;;;126.55;65.00;;;;;;;;;;5013977;28;20180;-60
2022/04/03 11:23:34;;;;;;;138.10;76.95;;;;;;;;;;5013606;28;20229;-60
2022/04/03 11:26:00;;;;;;;141.98;92.68;;;;;;;;;;5014077;28;20264;-61
2022/04/03 11:28:26;;;;;;;143.48;106.47;;;;;;;;;;5014214;28;20177;-61
2022/04/03 11:30:52;;;;;;;144.48;118.95;;;;;;;;;;5013829;28;20236;-61
2022/04/03 11:33:18;;;;;;;160.87;134.70;;;;;;;;;;5014007;28;20197;-62
2022/04/03 11:35:46;;;;;;;172.05;154.00;;;;;;;;;;5013405;28;20428;-62
2022/04/03 11:38:12;;;;;;;174.82;156.77;;;;;;;;;;5013167;28;20166;-61
2022/04/03 11:40:42;;;;;;;160.07;144.18;;;;;;;;;;5012729;28;20201;-58
2022/04/03 11:43:09;;;;;;;150.43;135.38;;;;;;;;;;4996838;28;20179;-61
2022/04/03 11:45:35;;;;;;;137.35;122.32;;;;;;;;;;5012107;28;20217;-60
2022/04/03 11:48:17;;;;;;;124.18;109.78;;;;;;;;;;5009865;28;20173;-61
2022/04/03 11:50:43;;;;;;;128.57;97.40;;;;;;;;;;5009851;28;20247;-60
2022/04/03 11:53:10;;;;;;;110.43;88.07;;;;;;;;;;5012944;28;20177;-61
2022/04/03 11:55:36;;;;;;;109.50;80.90;;;;;;;;;;5026718;28;20204;-59
2022/04/03 11:58:04;;;;;;;114.32;79.75;;;;;;;;;;5014386;28;20588;-61
2022/04/03 12:00:31;;;;;;;119.18;76.32;;;;;;;;;;5013324;28;20173;-59
2022/04/03 12:02:59;;;;;;;103.75;72.47;;;;;;;;;;5013148;28;20177;-60
2022/04/03 12:05:26;;;;;;;98.72;65.53;;;;;;;;;;5013124;28;20262;-60
2022/04/03 12:07:52;;;;;;;113.38;66.57;;;;;;;;;;5013394;28;20199;-60
2022/04/03 12:10:25;;;;;;;112.30;67.63;;;;;;;;;;5013079;28;20174;-61
2022/04/03 12:12:53;;;;;;;112.40;63.30;;;;;;;;;;5013275;28;20228;-61
2022/04/03 12:15:23;;;;;;;111.22;64.43;;;;;;;;;;5012676;28;20208;-60
2022/04/03 12:17:55;;;;;;;109.57;65.03;;;;;;;;;;5011817;28;20181;-60
2022/04/03 12:20:21;;;;;;;110.55;65.55;;;;;;;;;;5015461;28;20199;-60
2022/04/03 12:22:51;;;;;;;107.13;60.50;;;;;;;;;;5015441;28;20188;-60
2022/04/03 12:25:17;;;;;;;104.03;58.47;;;;;;;;;;5012138;28;20213;-61
2022/04/03 12:27:43;;;;;;;107.50;58.38;;;;;;;;;;5011895;28;20264;-60
2022/04/03 12:30:09;;;;;;;109.85;61.45;;;;;;;;;;5011360;28;20242;-61
2022/04/03 12:32:39;;;;;;;104.53;59.83;;;;;;;;;;5011657;28;20177;-61
2022/04/03 12:35:05;;;;;;;110.75;59.78;;;;;;;;;;5011292;28;20573;-61
2022/04/03 12:37:35;;;;;;;109.88;63.30;;;;;;;;;;5011566;28;20727;-61
2022/04/03 12:40:01;;;;;;;108.53;60.20;;;;;;;;;;5008915;28;20175;-60
2022/04/03 12:42:35;;;;;;;107.63;58.33;;;;;;;;;;5010912;28;20206;-61
2022/04/03 12:45:02;;;;;;;111.10;59.15;;;;;;;;;;5009120;28;20476;-60
2022/04/03 12:47:28;;;;;;;109.25;57.28;;;;;;;;;;5011350;28;20252;-60
2022/04/03 12:50:03;;;;;;;106.00;54.20;;;;;;;;;;5010116;28;20259;-60
2022/04/03 12:52:38;;;;;;;108.30;56.72;;;;;;;;;;5011146;28;20406;-60
2022/04/03 12:55:05;;;;;;;111.00;56.05;;;;;;;;;;5009184;28;20199;-59
2022/04/03 13:00:17;;;;;;;102.63;56.08;;;;;;;;;;5010771;28;20222;-60
2022/04/03 13:02:44;;;;;;;103.70;53.72;;;;;;;;;;5011110;28;20211;-60
2022/04/03 13:05:13;;;;;;;96.57;52.40;;;;;;;;;;5011111;28;20215;-60
2022/04/03 13:07:39;;;;;;;96.57;52.08;;;;;;;;;;5008579;28;20165;-60
2022/04/03 13:10:06;;;;;;;96.78;54.50;;;;;;;;;;5010864;28;20179;-60
2022/04/03 13:12:32;;;;;;;93.70;52.63;;;;;;;;;;5010856;28;20169;-60
2022/04/03 13:14:59;;;;;;;90.07;51.65;;;;;;;;;;5008570;28;20229;-60
2022/04/03 13:17:26;;;;;;;91.97;49.58;;;;;;;;;;5010944;28;20183;-59
2022/04/03 13:19:53;;;;;;;94.90;54.53;;;;;;;;;;5010697;28;20179;-60
2022/04/03 13:22:19;;;;;;;92.35;51.92;;;;;;;;;;5007776;28;20189;-60
2022/04/03 13:24:45;;;;;;;90.90;49.37;;;;;;;;;;5010549;28;20567;-60
2022/04/03 13:27:11;;;;;;;94.33;52.50;;;;;;;;;;5010461;28;20410;-59
2022/04/03 13:29:38;;;;;;;95.50;49.60;;;;;;;;;;5010430;28;20461;-61
2022/04/03 13:32:05;;;;;;;94.05;49.90;;;;;;;;;;5010347;28;20775;-60
2022/04/03 13:34:31;;;;;;;95.55;52.40;;;;;;;;;;5010565;28;20711;-60
2022/04/03 13:36:57;;;;;;;95.20;55.60;;;;;;;;;;5010518;28;20183;-61
2022/04/03 13:39:24;;;;;;;92.63;51.70;;;;;;;;;;5010633;28;20192;-59
2022/04/03 13:41:52;;;;;;;95.47;50.58;;;;;;;;;;5010357;28;20205;-60
2022/04/03 13:44:19;;;;;;;95.07;53.13;;;;;;;;;;5010155;28;20201;-60
2022/04/03 13:46:45;;;;;;;94.85;53.08;;;;;;;;;;5010266;28;20258;-61
2022/04/03 13:49:11;;;;;;;88.60;53.65;;;;;;;;;;5010396;28;20746;-60
2022/04/03 13:51:38;;;;;;;94.50;52.50;;;;;;;;;;5009900;28;20250;-60
2022/04/03 13:54:05;;;;;;;98.80;52.35;;;;;;;;;;5010052;28;20187;-60
2022/04/03 13:56:31;;;;;;;94.07;53.53;;;;;;;;;;5010207;28;20200;-60
2022/04/03 13:58:57;;;;;;;87.35;51.05;;;;;;;;;;5010439;28;20192;-60
2022/04/03 14:01:23;;;;;;;92.07;53.87;;;;;;;;;;5012867;28;20710;-59
2022/04/03 14:03:49;;;;;;;93.13;52.70;;;;;;;;;;5014348;28;20453;-60
2022/04/03 14:06:17;;;;;;;94.50;52.90;;;;;;;;;;5014123;28;20206;-62
2022/04/03 14:08:43;;;;;;;96.97;53.08;;;;;;;;;;5014200;28;20198;-60
2022/04/03 14:11:09;;;;;;;100.30;56.92;;;;;;;;;;5013831;28;20725;-59
2022/04/03 14:13:35;;;;;;;98.85;56.08;;;;;;;;;;5015685;28;20179;-61